createdAt,value
2016-04-25T00:00:56.875Z,99.99
2016-04-25T00:01:56.861Z,99.99
2016-04-25T00:02:56.832Z,99.99
2016-04-25T00:03:56.804Z,99.99
2016-04-25T00:04:56.792Z,99.99
2016-04-25T00:05:56.779Z,99.99
2016-04-25T00:06:56.749Z,99.99
2016-04-25T00:07:56.737Z,99.99
2016-04-25T00:08:56.723Z,99.99
2016-04-25T00:09:56.696Z,99.99
2016-04-25T00:10:56.683Z,99.99
2016-04-25T00:11:56.795Z,99.99
2016-04-25T00:12:57.281Z,99.99
2016-04-25T00:13:56.612Z,99.99
2016-04-25T00:14:56.599Z,99.99
2016-04-25T00:15:56.587Z,99.99
2016-04-25T00:16:56.574Z,99.99
2016-04-25T00:17:56.545Z,99.99
2016-04-25T00:18:56.516Z,99.99
2016-04-25T00:19:56.503Z,99.99
2016-04-25T00:20:56.491Z,99.99
2016-04-25T00:21:56.477Z,99.99
2016-04-25T00:22:56.454Z,99.99
2016-04-25T00:23:56.426Z,99.99
2016-04-25T00:24:56.413Z,99.99
2016-04-25T00:25:56.400Z,99.99
2016-04-25T00:26:56.840Z,99.99
2016-04-25T00:27:56.984Z,99.99
2016-04-25T00:28:56.345Z,99.99
2016-04-25T00:29:56.334Z,99.99
2016-04-25T00:30:56.304Z,99.99
2016-04-25T00:31:56.276Z,99.99
2016-04-25T00:32:56.107Z,99.99
2016-04-25T00:33:56.250Z,99.99
2016-04-25T00:34:56.222Z,99.99
2016-04-25T00:35:56.190Z,99.99
2016-04-25T00:36:56.177Z,99.99
2016-04-25T00:37:56.165Z,99.99
2016-04-25T00:38:56.136Z,99.99
2016-04-25T00:39:56.123Z,99.99
2016-04-25T00:40:56.110Z,99.99
2016-04-25T00:41:56.128Z,99.99
2016-04-25T00:42:56.005Z,99.99
2016-04-25T00:43:56.041Z,99.99
2016-04-25T00:44:56.027Z,99.99
2016-04-25T00:45:56.014Z,99.99
2016-04-25T00:46:55.985Z,99.99
2016-04-25T00:47:55.973Z,99.99
2016-04-25T00:48:55.960Z,99.99
2016-04-25T00:49:55.932Z,99.99
2016-04-25T00:50:55.918Z,99.99
2016-04-25T00:51:55.905Z,99.99
2016-04-25T00:52:55.876Z,99.99
2016-04-25T00:53:55.864Z,99.99
2016-04-25T00:54:55.835Z,99.99
2016-04-25T00:55:55.823Z,99.99
2016-04-25T00:56:55.653Z,99.99
2016-04-25T00:57:56.094Z,99.99
2016-04-25T00:58:55.768Z,99.99
2016-04-25T00:59:55.740Z,99.99
2016-04-25T01:00:55.757Z,99.99
2016-04-25T01:01:55.713Z,99.99
2016-04-25T01:02:55.684Z,99.99
2016-04-25T01:03:55.673Z,99.99
2016-04-25T01:04:55.643Z,99.99
2016-04-25T01:05:55.631Z,99.99
2016-04-25T01:06:55.617Z,99.99
2016-04-25T01:07:55.589Z,99.99
2016-04-25T01:08:55.576Z,99.99
2016-04-25T01:09:55.564Z,99.99
2016-04-25T01:10:55.534Z,99.99
2016-04-25T01:11:55.521Z,99.99
2016-04-25T01:12:55.352Z,99.99
2016-04-25T01:13:55.480Z,99.99
2016-04-25T01:14:55.467Z,99.99
2016-04-25T01:15:55.438Z,99.99
2016-04-25T01:16:55.441Z,99.99
2016-04-25T01:17:55.413Z,99.99
2016-04-25T01:18:55.400Z,99.99
2016-04-25T01:19:55.371Z,99.99
2016-04-25T01:20:55.343Z,99.99
2016-04-25T01:21:55.329Z,99.99
2016-04-25T01:22:55.317Z,99.99
2016-04-25T01:23:55.288Z,99.99
2016-04-25T01:24:55.275Z,99.99
2016-04-25T01:25:55.262Z,99.99
2016-04-25T01:26:55.234Z,99.99
2016-04-25T01:27:55.065Z,99.99
2016-04-25T01:28:55.208Z,99.99
2016-04-25T01:29:55.179Z,99.99
2016-04-25T01:30:55.167Z,99.99
2016-04-25T01:31:55.138Z,99.99
2016-04-25T01:32:55.140Z,99.99
2016-04-25T01:33:55.096Z,99.99
2016-04-25T01:34:55.084Z,99.99
2016-04-25T01:35:55.070Z,99.99
2016-04-25T01:36:55.042Z,99.99
2016-04-25T01:37:55.029Z,99.99
2016-04-25T01:38:55.016Z,99.99
2016-04-25T01:39:54.987Z,99.99
2016-04-25T01:40:54.975Z,99.99
2016-04-25T01:41:54.962Z,99.99
2016-04-25T01:42:55.152Z,99.99
2016-04-25T01:43:54.919Z,99.99
2016-04-25T01:44:54.891Z,99.99
2016-04-25T01:45:54.878Z,99.99
2016-04-25T01:46:54.866Z,99.99
2016-04-25T01:47:54.838Z,99.99
2016-04-25T01:48:54.824Z,99.99
2016-04-25T01:49:54.639Z,99.99
2016-04-25T01:50:54.783Z,99.99
2016-04-25T01:51:54.769Z,99.99
2016-04-25T01:52:54.757Z,99.99
2016-04-25T01:53:54.729Z,99.99
2016-04-25T01:54:54.700Z,99.99
2016-04-25T01:55:54.687Z,99.99
2016-04-25T01:56:54.658Z,99.99
2016-04-25T01:57:54.645Z,99.99
2016-04-25T01:58:54.632Z,99.99
2016-04-25T01:59:54.620Z,99.99
2016-04-25T02:00:54.590Z,99.99
2016-04-25T02:01:54.579Z,99.99
2016-04-25T02:02:54.581Z,99.99
2016-04-25T02:03:54.537Z,99.99
2016-04-25T02:04:54.508Z,99.99
2016-04-25T02:05:54.511Z,99.99
2016-04-25T02:06:54.482Z,99.99
2016-04-25T02:07:54.470Z,99.99
2016-04-25T02:08:54.456Z,99.99
2016-04-25T02:09:54.428Z,99.99
2016-04-25T02:10:54.414Z,99.99
2016-04-25T02:11:54.387Z,99.99
2016-04-25T02:12:54.623Z,99.99
2016-04-25T02:13:54.344Z,99.99
2016-04-25T02:14:54.331Z,99.99
2016-04-25T02:15:54.319Z,99.99
2016-04-25T02:16:54.291Z,99.99
2016-04-25T02:17:54.277Z,99.99
2016-04-25T02:18:54.249Z,99.99
2016-04-25T02:19:54.235Z,99.99
2016-04-25T02:20:54.222Z,99.99
2016-04-25T02:21:54.195Z,99.99
2016-04-25T02:22:54.197Z,99.99
2016-04-25T02:23:54.152Z,99.99
2016-04-25T02:24:54.155Z,99.99
2016-04-25T02:25:54.157Z,99.99
2016-04-25T02:26:54.130Z,99.99
2016-04-25T02:27:54.164Z,99.99
2016-04-25T02:28:54.072Z,99.99
2016-04-25T02:29:54.044Z,99.99
2016-04-25T02:30:54.031Z,99.99
2016-04-25T02:31:54.002Z,99.99
2016-04-25T02:32:53.990Z,99.99
2016-04-25T02:33:53.977Z,99.99
2016-04-25T02:34:53.949Z,99.99
2016-04-25T02:35:53.935Z,99.99
2016-04-25T02:36:53.922Z,99.99
2016-04-25T02:37:53.893Z,99.99
2016-04-25T02:38:53.880Z,99.99
2016-04-25T02:39:53.852Z,99.99
2016-04-25T02:40:53.871Z,99.99
2016-04-25T02:41:53.842Z,99.99
2016-04-25T02:42:53.907Z,99.99
2016-04-25T02:43:53.784Z,99.99
2016-04-25T02:44:53.772Z,99.99
2016-04-25T02:45:53.744Z,99.99
2016-04-25T02:46:53.731Z,99.99
2016-04-25T02:47:53.717Z,99.99
2016-04-25T02:48:53.689Z,99.99
2016-04-25T02:49:53.676Z,99.99
2016-04-25T02:50:53.647Z,99.99
2016-04-25T02:51:53.635Z,99.99
2016-04-25T02:52:53.606Z,99.99
2016-04-25T02:53:53.593Z,99.99
2016-04-25T02:54:53.580Z,99.99
2016-04-25T02:55:53.551Z,99.99
2016-04-25T02:56:53.539Z,99.99
2016-04-25T02:57:53.635Z,99.99
2016-04-25T02:58:53.497Z,99.99
2016-04-25T02:59:53.485Z,99.99
2016-04-25T03:00:53.455Z,99.99
2016-04-25T03:01:53.458Z,99.99
2016-04-25T03:02:53.429Z,99.99
2016-04-25T03:03:53.418Z,99.99
2016-04-25T03:04:53.404Z,99.99
2016-04-25T03:05:53.375Z,99.99
2016-04-25T03:06:53.347Z,99.99
2016-04-25T03:07:53.334Z,99.99
2016-04-25T03:08:53.305Z,99.99
2016-04-25T03:09:53.292Z,99.99
2016-04-25T03:10:53.279Z,99.99
2016-04-25T03:11:53.267Z,99.99
2016-04-25T03:12:53.925Z,99.99
2016-04-25T03:13:53.209Z,99.99
2016-04-25T03:14:53.197Z,99.99
2016-04-25T03:15:53.183Z,99.99
2016-04-25T03:16:53.155Z,99.99
2016-04-25T03:17:53.142Z,99.99
2016-04-25T03:18:53.128Z,99.99
2016-04-25T03:19:53.101Z,99.99
2016-04-25T03:20:53.088Z,99.99
2016-04-25T03:21:53.074Z,99.99
2016-04-25T03:22:53.046Z,99.99
2016-04-25T03:23:53.033Z,99.99
2016-04-25T03:24:53.004Z,99.99
2016-04-25T03:25:52.991Z,99.99
2016-04-25T03:26:52.963Z,99.99
2016-04-25T03:27:52.810Z,99.99
2016-04-25T03:28:52.937Z,99.99
2016-04-25T03:29:52.908Z,99.99
2016-04-25T03:30:52.895Z,99.99
2016-04-25T03:31:52.882Z,99.99
2016-04-25T03:32:52.855Z,99.99
2016-04-25T03:33:52.840Z,99.99
2016-04-25T03:34:52.813Z,99.99
2016-04-25T03:35:52.799Z,99.99
2016-04-25T03:36:52.787Z,99.99
2016-04-25T03:37:52.759Z,99.99
2016-04-25T03:38:52.745Z,99.99
2016-04-25T03:39:52.732Z,99.99
2016-04-25T03:40:52.719Z,99.99
2016-04-25T03:41:52.690Z,99.99
2016-04-25T03:42:52.818Z,99.99
2016-04-25T03:43:52.493Z,99.99
2016-04-25T03:44:52.620Z,99.99
2016-04-25T03:45:52.608Z,99.99
2016-04-25T03:46:52.595Z,99.99
2016-04-25T03:47:52.567Z,99.99
2016-04-25T03:48:52.569Z,99.99
2016-04-25T03:49:52.556Z,99.99
2016-04-25T03:50:52.512Z,99.99
2016-04-25T03:51:52.499Z,99.99
2016-04-25T03:52:52.486Z,99.99
2016-04-25T03:53:52.473Z,99.99
2016-04-25T03:54:52.444Z,99.99
2016-04-25T03:55:52.432Z,99.99
2016-04-25T03:56:52.403Z,99.99
2016-04-25T03:57:53.078Z,99.99
2016-04-25T03:58:52.283Z,99.99
2016-04-25T03:59:52.348Z,99.99
2016-04-25T04:00:52.335Z,99.99
2016-04-25T04:01:52.324Z,99.99
2016-04-25T04:02:52.294Z,99.99
2016-04-25T04:03:52.281Z,99.99
2016-04-25T04:04:52.252Z,99.99
2016-04-25T04:05:52.240Z,99.99
2016-04-25T04:06:52.227Z,99.99
2016-04-25T04:07:52.198Z,99.99
2016-04-25T04:08:52.185Z,99.99
2016-04-25T04:09:52.173Z,99.99
2016-04-25T04:10:52.144Z,99.99
2016-04-25T04:11:52.131Z,99.99
2016-04-25T04:12:51.977Z,99.99
2016-04-25T04:13:52.089Z,99.99
2016-04-25T04:14:52.077Z,99.99
2016-04-25T04:15:52.064Z,99.99
2016-04-25T04:16:52.035Z,99.99
2016-04-25T04:17:52.022Z,99.99
2016-04-25T04:18:51.837Z,99.99
2016-04-25T04:19:51.981Z,99.99
2016-04-25T04:20:51.967Z,99.99
2016-04-25T04:21:51.956Z,99.99
2016-04-25T04:22:51.926Z,99.99
2016-04-25T04:23:51.914Z,99.99
2016-04-25T04:24:51.885Z,99.99
2016-04-25T04:25:51.872Z,99.99
2016-04-25T04:26:51.858Z,99.99
2016-04-25T04:27:51.956Z,99.99
2016-04-25T04:28:52.146Z,99.99
2016-04-25T04:29:51.805Z,99.99
2016-04-25T04:30:51.776Z,99.99
2016-04-25T04:31:51.763Z,99.99
2016-04-25T04:32:51.734Z,99.99
2016-04-25T04:33:51.738Z,99.99
2016-04-25T04:34:51.708Z,99.99
2016-04-25T04:35:51.696Z,99.99
2016-04-25T04:36:51.682Z,99.99
2016-04-25T04:37:51.654Z,99.99
2016-04-25T04:38:51.641Z,99.99
2016-04-25T04:39:51.612Z,99.99
2016-04-25T04:40:51.599Z,99.99
2016-04-25T04:41:51.587Z,99.99
2016-04-25T04:42:53.043Z,99.99
2016-04-25T04:43:52.389Z,99.99
2016-04-25T04:44:51.532Z,99.99
2016-04-25T04:45:51.519Z,99.99
2016-04-25T04:46:51.491Z,99.99
2016-04-25T04:47:51.478Z,99.99
2016-04-25T04:48:51.465Z,99.99
2016-04-25T04:49:51.436Z,99.99
2016-04-25T04:50:51.423Z,99.99
2016-04-25T04:51:51.395Z,99.99
2016-04-25T04:52:51.382Z,99.99
2016-04-25T04:53:51.369Z,99.99
2016-04-25T04:54:51.341Z,99.99
2016-04-25T04:55:51.327Z,99.99
2016-04-25T04:56:51.314Z,99.99
2016-04-25T04:57:51.927Z,99.85
2016-04-25T04:58:52.288Z,99.9
2016-04-25T04:59:51.260Z,99.62
2016-04-25T05:00:51.247Z,99.05
2016-04-25T05:01:51.235Z,98.68
2016-04-25T05:02:51.205Z,97.92
2016-04-25T05:03:51.193Z,97.35
2016-04-25T05:04:51.164Z,97.16
2016-04-25T05:05:51.152Z,97.44
2016-04-25T05:06:51.123Z,97.16
2016-04-25T05:07:51.126Z,97.11
2016-04-25T05:08:51.096Z,96.78
2016-04-25T05:09:51.084Z,96.55
2016-04-25T05:10:51.087Z,96.4
2016-04-25T05:11:51.074Z,96.17
2016-04-25T05:12:51.065Z,96.36
2016-04-25T05:13:51.096Z,96.92
2016-04-25T05:14:51.128Z,96.64
2016-04-25T05:15:51.158Z,95.98
2016-04-25T05:16:51.190Z,95.98
2016-04-25T05:17:51.198Z,95.5
2016-04-25T05:18:51.186Z,95.12
2016-04-25T05:19:51.188Z,95.5
2016-04-25T05:20:51.192Z,95.12
2016-04-25T05:21:51.194Z,95.03
2016-04-25T05:22:51.173Z,95.31
2016-04-25T05:23:51.182Z,95.5
2016-04-25T05:24:51.159Z,95.5
2016-04-25T05:25:51.152Z,95.41
2016-04-25T05:26:51.129Z,96.36
2016-04-25T05:27:51.118Z,95.98
2016-04-25T05:28:52.014Z,96.45
2016-04-25T05:29:51.096Z,95.98
2016-04-25T05:30:51.086Z,95.88
2016-04-25T05:31:51.074Z,96.17
2016-04-25T05:32:51.046Z,95.79
2016-04-25T05:33:51.035Z,96.26
2016-04-25T05:34:51.022Z,96.55
2016-04-25T05:35:51.010Z,96.17
2016-04-25T05:36:50.998Z,95.88
2016-04-25T05:37:50.970Z,96.07
2016-04-25T05:38:50.957Z,96.36
2016-04-25T05:39:50.945Z,96.07
2016-04-25T05:40:50.933Z,96.26
2016-04-25T05:41:50.904Z,96.26
2016-04-25T05:42:50.891Z,96.55
2016-04-25T05:43:51.629Z,96.83
2016-04-25T05:44:50.865Z,96.26
2016-04-25T05:45:50.852Z,96.83
2016-04-25T05:46:50.839Z,96.45
2016-04-25T05:47:50.811Z,96.92
2016-04-25T05:48:50.798Z,96.83
2016-04-25T05:49:50.786Z,96.55
2016-04-25T05:50:50.756Z,96.45
2016-04-25T05:51:50.743Z,96.36
2016-04-25T05:52:50.731Z,96.83
2016-04-25T05:53:50.702Z,96.55
2016-04-25T05:54:50.688Z,95.98
2016-04-25T05:55:50.677Z,96.26
2016-04-25T05:56:50.663Z,96.26
2016-04-25T05:57:50.650Z,96.55
2016-04-25T05:58:50.638Z,95.88
2016-04-25T05:59:50.640Z,95.41
2016-04-25T06:00:50.612Z,95.41
2016-04-25T06:01:50.582Z,95.88
2016-04-25T06:02:50.571Z,96.03
2016-04-25T06:03:50.541Z,96.41
2016-04-25T06:04:50.528Z,95.74
2016-04-25T06:05:50.532Z,95.55
2016-04-25T06:06:50.518Z,95.55
2016-04-25T06:07:50.490Z,95.26
2016-04-25T06:08:50.462Z,95.26
2016-04-25T06:09:50.448Z,95.26
2016-04-25T06:10:50.435Z,94.7
2016-04-25T06:11:50.422Z,95.07
2016-04-25T06:12:50.409Z,94.89
2016-04-25T06:13:50.240Z,94.6
2016-04-25T06:14:50.384Z,93.94
2016-04-25T06:15:50.355Z,93.84
2016-04-25T06:16:50.342Z,93.84
2016-04-25T06:17:50.329Z,92.71
2016-04-25T06:18:50.316Z,92.8
2016-04-25T06:19:50.303Z,91.85
2016-04-25T06:20:50.291Z,92.14
2016-04-25T06:21:50.293Z,92.23
2016-04-25T06:22:50.250Z,92.09
2016-04-25T06:23:50.237Z,92.38
2016-04-25T06:24:50.223Z,91.9
2016-04-25T06:25:50.195Z,91.71
2016-04-25T06:26:50.198Z,91.42
2016-04-25T06:27:50.186Z,91.24
2016-04-25T06:28:50.000Z,90.86
2016-04-25T06:29:50.159Z,90.86
2016-04-25T06:30:50.131Z,89.62
2016-04-25T06:31:50.117Z,90
2016-04-25T06:32:50.105Z,90.48
2016-04-25T06:33:50.092Z,90.38
2016-04-25T06:34:50.063Z,90.76
2016-04-25T06:35:50.067Z,90.57
2016-04-25T06:36:50.038Z,89.91
2016-04-25T06:37:50.024Z,89.62
2016-04-25T06:38:50.028Z,88.62
2016-04-25T06:39:49.998Z,88.24
2016-04-25T06:40:49.986Z,87.68
2016-04-25T06:41:49.973Z,86.44
2016-04-25T06:42:49.960Z,85.68
2016-04-25T06:43:50.196Z,85.49
2016-04-25T06:44:49.935Z,84.78
2016-04-25T06:45:49.921Z,84.97
2016-04-25T06:46:49.924Z,84.44
2016-04-25T06:47:49.895Z,82.73
2016-04-25T06:48:49.883Z,82.26
2016-04-25T06:49:49.869Z,81.97
2016-04-25T06:50:49.857Z,81.78
2016-04-25T06:51:49.843Z,80.74
2016-04-25T06:52:49.831Z,80.45
2016-04-25T06:53:49.833Z,80.74
2016-04-25T06:54:49.805Z,80.77
2016-04-25T06:55:49.807Z,80.58
2016-04-25T06:56:49.795Z,80.3
2016-04-25T06:57:49.812Z,79.54
2016-04-25T06:58:49.815Z,79.3
2016-04-25T06:59:49.990Z,79.16
2016-04-25T07:00:49.743Z,78.88
2016-04-25T07:01:49.745Z,78.88
2016-04-25T07:02:49.716Z,78.78
2016-04-25T07:03:49.719Z,78.72
2016-04-25T07:04:49.691Z,77.87
2016-04-25T07:05:49.694Z,77.49
2016-04-25T07:06:49.681Z,77.77
2016-04-25T07:07:49.668Z,78.16
2016-04-25T07:08:49.655Z,77.3
2016-04-25T07:09:49.642Z,77.3
2016-04-25T07:10:49.629Z,77.39
2016-04-25T07:11:49.632Z,77.3
2016-04-25T07:12:49.603Z,78.3
2016-04-25T07:13:49.746Z,78.53
2016-04-25T07:14:49.608Z,77.49
2016-04-25T07:15:49.580Z,76.44
2016-04-25T07:16:49.567Z,76.25
2016-04-25T07:17:49.554Z,76.63
2016-04-25T07:18:49.541Z,76.03
2016-04-25T07:19:49.529Z,76.59
2016-04-25T07:20:49.515Z,77.73
2016-04-25T07:21:49.518Z,78.3
2016-04-25T07:22:49.489Z,78.69
2016-04-25T07:23:49.476Z,78.02
2016-04-25T07:24:49.464Z,77.73
2016-04-25T07:25:49.451Z,77.73
2016-04-25T07:26:49.437Z,77.26
2016-04-25T07:27:49.440Z,77.45
2016-04-25T07:28:50.459Z,78.3
2016-04-25T07:29:49.414Z,78.3
2016-04-25T07:30:49.401Z,78.4
2016-04-25T07:31:49.389Z,77.45
2016-04-25T07:32:49.376Z,76.82
2016-04-25T07:33:49.363Z,77.01
2016-04-25T07:34:49.350Z,76.73
2016-04-25T07:35:49.337Z,76.44
2016-04-25T07:36:49.339Z,75.68
2016-04-25T07:37:49.311Z,75.72
2016-04-25T07:38:49.313Z,74.58
2016-04-25T07:39:49.301Z,73.72
2016-04-25T07:40:49.288Z,72.33
2016-04-25T07:41:49.275Z,71.86
2016-04-25T07:42:49.262Z,72.24
2016-04-25T07:43:49.265Z,70.56
2016-04-25T07:44:49.251Z,69.57
2016-04-25T07:45:49.239Z,69.04
2016-04-25T07:46:49.288Z,69.23
2016-04-25T07:47:49.494Z,67.99
2016-04-25T07:48:49.215Z,67.89
2016-04-25T07:49:49.202Z,67.7
2016-04-25T07:50:49.205Z,67.07
2016-04-25T07:51:49.207Z,66.97
2016-04-25T07:52:49.180Z,66.5
2016-04-25T07:53:49.167Z,65.77
2016-04-25T07:54:49.170Z,64.47
2016-04-25T07:55:49.157Z,63.7
2016-04-25T07:56:49.143Z,62.3
2016-04-25T07:57:49.145Z,63.51
2016-04-25T07:58:49.587Z,64.47
2016-04-25T07:59:49.214Z,62.18
2016-04-25T08:00:49.123Z,62.65
2016-04-25T08:01:49.110Z,63
2016-04-25T08:02:49.206Z,63.2
2016-04-25T08:03:49.100Z,63.32
2016-04-25T08:04:49.118Z,62.37
2016-04-25T08:05:49.105Z,61.73
2016-04-25T08:06:49.092Z,61.54
2016-04-25T08:07:49.095Z,62.11
2016-04-25T08:08:49.066Z,61.22
2016-04-25T08:09:49.131Z,60.84
2016-04-25T08:10:49.072Z,60.68
2016-04-25T08:11:49.106Z,60.11
2016-04-25T08:12:49.055Z,59.85
2016-04-25T08:13:49.354Z,60.14
2016-04-25T08:14:49.045Z,58.93
2016-04-25T08:15:49.031Z,58.36
2016-04-25T08:16:49.033Z,58.45
2016-04-25T08:17:49.037Z,57.68
2016-04-25T08:18:49.024Z,57.14
2016-04-25T08:19:49.011Z,55.54
2016-04-25T08:20:49.013Z,55.32
2016-04-25T08:21:49.032Z,56.57
2016-04-25T08:22:49.004Z,56.85
2016-04-25T08:23:49.007Z,56.47
2016-04-25T08:24:48.994Z,57.11
2016-04-25T08:25:48.997Z,57.78
2016-04-25T08:26:48.984Z,57.59
2016-04-25T08:27:49.017Z,56.16
2016-04-25T08:28:48.833Z,56.09
2016-04-25T08:29:48.976Z,55.13
2016-04-25T08:30:48.979Z,54.75
2016-04-25T08:31:48.966Z,55.32
2016-04-25T08:32:48.969Z,55.32
2016-04-25T08:33:48.955Z,55.8
2016-04-25T08:34:48.944Z,56.54
2016-04-25T08:35:48.961Z,57.65
2016-04-25T08:36:48.949Z,57.85
2016-04-25T08:37:48.935Z,57.85
2016-04-25T08:38:48.938Z,57.63
2016-04-25T08:39:48.925Z,57.28
2016-04-25T08:40:48.948Z,57.21
2016-04-25T08:41:48.904Z,56.92
2016-04-25T08:42:48.173Z,57.46
2016-04-25T08:43:51.378Z,57.37
2016-04-25T08:44:48.897Z,57.65
2016-04-25T08:45:48.884Z,57.92
2016-04-25T08:46:48.887Z,58.2
2016-04-25T08:47:48.873Z,58.2
2016-04-25T08:48:48.860Z,58.39
2016-04-25T08:49:48.863Z,57.63
2016-04-25T08:50:48.944Z,58.29
2016-04-25T08:51:48.853Z,58.55
2016-04-25T08:52:48.840Z,59.7
2016-04-25T08:53:48.842Z,60.36
2016-04-25T08:54:48.830Z,59.7
2016-04-25T08:55:48.817Z,58.17
2016-04-25T08:56:48.850Z,57.92
2016-04-25T08:57:48.806Z,58.01
2016-04-25T08:58:49.403Z,58.48
2016-04-25T08:59:48.797Z,58.77
2016-04-25T09:00:48.799Z,58.29
2016-04-25T09:01:48.770Z,57.43
2016-04-25T09:02:48.788Z,57.37
2016-04-25T09:03:48.760Z,57.34
2016-04-25T09:04:48.763Z,57.63
2016-04-25T09:05:48.813Z,57.43
2016-04-25T09:06:48.752Z,57.92
2016-04-25T09:07:48.740Z,57.09
2016-04-25T09:08:48.743Z,57.15
2016-04-25T09:09:48.730Z,57.06
2016-04-25T09:10:48.716Z,56.74
2016-04-25T09:11:48.704Z,56.84
2016-04-25T09:12:48.706Z,57.7
2016-04-25T09:13:48.771Z,57.6
2016-04-25T09:14:48.712Z,58.36
2016-04-25T09:15:48.682Z,58.26
2016-04-25T09:16:48.689Z,58.65
2016-04-25T09:17:48.677Z,59.7
2016-04-25T09:18:48.664Z,58.36
2016-04-25T09:19:48.651Z,58.26
2016-04-25T09:20:48.638Z,58.26
2016-04-25T09:21:48.641Z,57.79
2016-04-25T09:22:48.706Z,57.82
2016-04-25T09:23:48.615Z,57.53
2016-04-25T09:24:48.743Z,57.53
2016-04-25T09:25:48.604Z,58.48
2016-04-25T09:26:48.591Z,58.48
2016-04-25T09:27:48.594Z,57.63
2016-04-25T09:28:48.613Z,58.07
2016-04-25T09:29:48.928Z,59.6
2016-04-25T09:30:48.571Z,59.6
2016-04-25T09:31:48.558Z,58.2
2016-04-25T09:32:48.562Z,58.2
2016-04-25T09:33:48.548Z,58.77
2016-04-25T09:34:48.550Z,58.17
2016-04-25T09:35:48.537Z,58.55
2016-04-25T09:36:48.525Z,59.51
2016-04-25T09:37:48.512Z,59.89
2016-04-25T09:38:48.498Z,59.41
2016-04-25T09:39:48.501Z,59.28
2016-04-25T09:40:48.489Z,59.38
2016-04-25T09:41:48.491Z,60.52
2016-04-25T09:42:48.478Z,60.62
2016-04-25T09:43:49.419Z,60.72
2016-04-25T09:44:48.811Z,60.81
2016-04-25T09:45:48.455Z,61
2016-04-25T09:46:48.458Z,61.29
2016-04-25T09:47:48.430Z,61.48
2016-04-25T09:48:48.432Z,61.1
2016-04-25T09:49:48.419Z,61.57
2016-04-25T09:50:48.453Z,61.32
2016-04-25T09:51:48.408Z,60.75
2016-04-25T09:52:48.396Z,60.08
2016-04-25T09:53:48.382Z,60.65
2016-04-25T09:54:48.370Z,60.17
2016-04-25T09:55:48.373Z,60.24
2016-04-25T09:56:48.422Z,60.91
2016-04-25T09:57:48.362Z,61.19
2016-04-25T09:58:48.334Z,60.52
2016-04-25T09:59:48.337Z,60.52
2016-04-25T10:00:48.340Z,60.72
2016-04-25T10:01:48.342Z,60.81
2016-04-25T10:02:48.329Z,60.62
2016-04-25T10:03:48.300Z,61
2016-04-25T10:04:48.303Z,60.81
2016-04-25T10:05:48.275Z,61.19
2016-04-25T10:06:48.278Z,61.1
2016-04-25T10:07:48.264Z,61
2016-04-25T10:08:48.251Z,61.38
2016-04-25T10:09:48.270Z,61.48
2016-04-25T10:10:48.242Z,62.02
2016-04-25T10:11:48.228Z,62.05
2016-04-25T10:12:48.230Z,62.02
2016-04-25T10:13:48.203Z,61.19
2016-04-25T10:14:48.425Z,61.1
2016-04-25T10:15:48.177Z,61
2016-04-25T10:16:48.164Z,61.19
2016-04-25T10:17:48.182Z,60.62
2016-04-25T10:18:48.169Z,60.91
2016-04-25T10:19:48.156Z,60.72
2016-04-25T10:20:48.175Z,60.55
2016-04-25T10:21:48.130Z,60.62
2016-04-25T10:22:48.116Z,60.62
2016-04-25T10:23:48.119Z,60.43
2016-04-25T10:24:48.091Z,60.91
2016-04-25T10:25:48.094Z,61.67
2016-04-25T10:26:48.066Z,61.48
2016-04-25T10:27:48.068Z,61.96
2016-04-25T10:28:47.915Z,62.12
2016-04-25T10:29:48.043Z,62.21
2016-04-25T10:30:48.093Z,62.78
2016-04-25T10:31:48.069Z,62.78
2016-04-25T10:32:47.852Z,62.94
2016-04-25T10:33:47.887Z,63.51
2016-04-25T10:34:48.003Z,64.08
2016-04-25T10:35:47.996Z,64.56
2016-04-25T10:36:48.061Z,64.37
2016-04-25T10:37:47.970Z,64.75
2016-04-25T10:38:47.957Z,64.75
2016-04-25T10:39:47.945Z,64.56
2016-04-25T10:40:47.932Z,64.94
2016-04-25T10:41:47.981Z,63.92
2016-04-25T10:42:47.905Z,64.37
2016-04-25T10:43:48.705Z,63.99
2016-04-25T10:44:47.895Z,63.89
2016-04-25T10:45:47.883Z,64.56
2016-04-25T10:46:47.869Z,64.37
2016-04-25T10:47:47.888Z,63.92
2016-04-25T10:48:47.859Z,64.4
2016-04-25T10:49:47.847Z,63.92
2016-04-25T10:50:47.864Z,64.31
2016-04-25T10:51:47.805Z,64.47
2016-04-25T10:52:47.838Z,65.23
2016-04-25T10:53:47.825Z,65.61
2016-04-25T10:54:47.796Z,66.08
2016-04-25T10:55:47.785Z,65.99
2016-04-25T10:56:47.755Z,66.27
2016-04-25T10:57:47.758Z,66.27
2016-04-25T10:58:48.245Z,66.08
2016-04-25T10:59:48.452Z,65.89
2016-04-25T11:00:47.735Z,66.08
2016-04-25T11:01:47.535Z,65.8
2016-04-25T11:02:47.709Z,65.23
2016-04-25T11:03:47.681Z,65.19
2016-04-25T11:04:47.668Z,65.48
2016-04-25T11:05:47.654Z,66.37
2016-04-25T11:06:47.642Z,66.27
2016-04-25T11:07:47.629Z,66.75
2016-04-25T11:08:47.616Z,66.27
2016-04-25T11:09:47.603Z,65.89
2016-04-25T11:10:47.590Z,65.13
2016-04-25T11:11:47.609Z,64.65
2016-04-25T11:12:47.580Z,64.84
2016-04-25T11:13:47.457Z,65.32
2016-04-25T11:14:48.117Z,64.84
2016-04-25T11:15:47.541Z,64.56
2016-04-25T11:16:47.528Z,64.65
2016-04-25T11:17:47.515Z,63.45
2016-04-25T11:18:47.503Z,63.35
2016-04-25T11:19:47.505Z,63.26
2016-04-25T11:20:47.492Z,62.88
2016-04-25T11:21:47.480Z,62.34
2016-04-25T11:22:47.466Z,62.05
2016-04-25T11:23:47.453Z,61.22
2016-04-25T11:24:47.440Z,60.94
2016-04-25T11:25:47.443Z,61.22
2016-04-25T11:26:47.430Z,60.65
2016-04-25T11:27:47.433Z,60.08
2016-04-25T11:28:47.514Z,60.65
2016-04-25T11:29:47.235Z,60.55
2016-04-25T11:30:47.379Z,60.55
2016-04-25T11:31:47.382Z,60.94
2016-04-25T11:32:47.368Z,61.04
2016-04-25T11:33:47.355Z,61.7
2016-04-25T11:34:47.357Z,62.08
2016-04-25T11:35:47.345Z,61.32
2016-04-25T11:36:47.629Z,61.22
2016-04-25T11:37:47.318Z,61.13
2016-04-25T11:38:47.306Z,61.04
2016-04-25T11:39:47.309Z,60.84
2016-04-25T11:40:47.389Z,60.84
2016-04-25T11:41:47.283Z,61.86
2016-04-25T11:42:47.270Z,62.52
2016-04-25T11:43:48.397Z,62.52
2016-04-25T11:44:47.337Z,63
2016-04-25T11:45:47.247Z,62.81
2016-04-25T11:46:47.234Z,63.48
2016-04-25T11:47:47.241Z,62.81
2016-04-25T11:48:47.233Z,63.57
2016-04-25T11:49:47.096Z,63.57
2016-04-25T11:50:47.208Z,64.43
2016-04-25T11:51:47.210Z,64.24
2016-04-25T11:52:47.187Z,64.72
2016-04-25T11:53:47.173Z,65.86
2016-04-25T11:54:47.160Z,65.92
2016-04-25T11:55:47.148Z,66.31
2016-04-25T11:56:47.135Z,65.73
2016-04-25T11:57:47.138Z,66.97
2016-04-25T11:58:47.124Z,66.88
2016-04-25T11:59:47.565Z,67.13
2016-04-25T12:00:47.083Z,67.83
2016-04-25T12:01:47.070Z,68.3
2016-04-25T12:02:47.073Z,69.51
2016-04-25T12:03:47.060Z,70.08
2016-04-25T12:04:47.047Z,70.75
2016-04-25T12:05:47.050Z,70.18
2016-04-25T12:06:47.036Z,70.56
2016-04-25T12:07:47.023Z,70.65
2016-04-25T12:08:47.011Z,70.18
2016-04-25T12:09:46.998Z,69.95
2016-04-25T12:10:46.985Z,70.81
2016-04-25T12:11:46.972Z,71.03
2016-04-25T12:12:46.975Z,71.13
2016-04-25T12:13:47.321Z,70.84
2016-04-25T12:14:46.949Z,71.32
2016-04-25T12:15:46.919Z,71.61
2016-04-25T12:16:46.922Z,70.84
2016-04-25T12:17:46.910Z,70.37
2016-04-25T12:18:46.897Z,70.75
2016-04-25T12:19:46.885Z,71.8
2016-04-25T12:20:46.887Z,71.26
2016-04-25T12:21:46.858Z,71.36
2016-04-25T12:22:46.861Z,68.88
2016-04-25T12:23:46.848Z,70.02
2016-04-25T12:24:46.835Z,69.64
2016-04-25T12:25:46.822Z,70.31
2016-04-25T12:26:46.809Z,70.31
2016-04-25T12:27:46.796Z,71.51
2016-04-25T12:28:46.784Z,71.98
2016-04-25T12:29:46.787Z,72.65
2016-04-25T12:30:46.773Z,73.13
2016-04-25T12:31:46.760Z,73.07
2016-04-25T12:32:46.763Z,71.36
2016-04-25T12:33:46.734Z,71.32
2016-04-25T12:34:46.737Z,72.65
2016-04-25T12:35:46.723Z,72.46
2016-04-25T12:36:46.695Z,72.27
2016-04-25T12:37:46.714Z,73.8
2016-04-25T12:38:46.685Z,73.13
2016-04-25T12:39:46.672Z,73.99
2016-04-25T12:40:46.659Z,73.61
2016-04-25T12:41:46.662Z,73.61
2016-04-25T12:42:46.633Z,73.47
2016-04-25T12:43:46.636Z,74.52
2016-04-25T12:44:47.014Z,74.33
2016-04-25T12:45:46.594Z,74.9
2016-04-25T12:46:46.598Z,75.85
2016-04-25T12:47:46.569Z,75.47
2016-04-25T12:48:46.571Z,75.95
2016-04-25T12:49:46.559Z,77.19
2016-04-25T12:50:46.546Z,78.71
2016-04-25T12:51:46.532Z,78.86
2016-04-25T12:52:46.519Z,79.43
2016-04-25T12:53:46.507Z,80.86
2016-04-25T12:54:46.493Z,80.47